Time;durP1;ratioP1;P1;durP2;ratioP2;P2;SDS_P1;SDS_P2;PMS_P1;PMS_P2;Temp;Humidity;BMP_temperature;BMP_pressure;BME280_temperature;BME280_humidity;BME280_pressure;Samples;Min_cycle;Max_cycle;Signal;HPM_P1;HPM_P2
2022/03/23 00:02:03;;;;;;;23.95;15.82;;;;;;;3.04;74.58;96968.31;6336436;22;20003;-65
2022/03/23 00:04:29;;;;;;;24.42;15.07;;;;;;;2.97;75.13;96966.84;6336493;22;20007;-65
2022/03/23 00:06:55;;;;;;;19.48;14.80;;;;;;;2.97;74.73;96972.03;6336616;22;20133;-65
2022/03/23 00:09:20;;;;;;;24.88;16.33;;;;;;;2.92;74.82;96967.06;6336572;22;20033;-65
2022/03/23 00:11:46;;;;;;;19.05;15.00;;;;;;;2.85;75.66;96969.06;6336305;22;20447;-65
2022/03/23 00:14:11;;;;;;;17.73;13.98;;;;;;;2.81;74.99;96970.09;6336497;22;20003;-65
2022/03/23 00:16:38;;;;;;;20.90;14.95;;;;;;;2.85;73.76;96963.84;6336572;22;20010;-65
2022/03/23 00:19:04;;;;;;;20.25;14.55;;;;;;;2.85;74.74;96966.47;6336429;22;20006;-65
2022/03/23 00:21:30;;;;;;;18.27;14.23;;;;;;;2.86;74.23;96964.69;6336364;22;19999;-65
2022/03/23 00:23:56;;;;;;;18.13;14.25;;;;;;;2.83;74.94;96964.81;6335817;22;20021;-65
2022/03/23 00:26:21;;;;;;;17.30;14.50;;;;;;;2.81;75.10;96967.50;6336281;22;20066;-65
2022/03/23 00:28:48;;;;;;;17.75;14.15;;;;;;;2.79;74.26;96965.84;6336396;22;20026;-65
2022/03/23 00:31:14;;;;;;;21.58;14.35;;;;;;;2.75;74.66;96967.72;6336069;22;20342;-65
2022/03/23 00:33:39;;;;;;;21.88;16.02;;;;;;;2.69;75.37;96970.56;6336085;22;20022;-65
2022/03/23 00:36:06;;;;;;;21.45;15.13;;;;;;;2.67;75.16;96975.84;6336565;22;20006;-65
2022/03/23 00:38:32;;;;;;;16.27;14.48;;;;;;;2.59;76.34;96972.69;6336160;22;20078;-65
2022/03/23 00:40:58;;;;;;;17.52;13.90;;;;;;;2.50;76.49;96979.09;6308632;22;20086;-65
2022/03/23 00:43:24;;;;;;;17.48;14.25;;;;;;;2.48;76.68;96983.53;6336290;22;20442;-65
2022/03/23 00:45:49;;;;;;;18.52;13.88;;;;;;;2.62;74.32;96972.56;6335962;22;20405;-65
2022/03/23 00:48:14;;;;;;;16.25;13.75;;;;;;;2.62;75.25;96971.75;6335830;22;20003;-65
2022/03/23 00:50:40;;;;;;;15.68;13.43;;;;;;;2.55;75.50;96985.00;6336007;22;20085;-66
2022/03/23 00:53:06;;;;;;;15.23;13.50;;;;;;;2.53;74.97;96972.94;6336382;22;20443;-65
2022/03/23 00:55:31;;;;;;;15.15;13.45;;;;;;;2.55;74.91;96977.19;6335940;22;20074;-66
2022/03/23 00:57:56;;;;;;;15.18;13.57;;;;;;;2.49;74.89;96980.00;6336176;22;20423;-65
2022/03/23 01:00:22;;;;;;;19.15;14.05;;;;;;;2.40;76.78;96986.41;6335894;22;20403;-65
2022/03/23 01:02:48;;;;;;;16.33;13.68;;;;;;;2.36;77.12;96976.22;6335980;22;20010;-66
2022/03/23 01:05:15;;;;;;;19.58;13.23;;;;;;;2.33;76.97;96986.75;6336116;22;20026;-66
2022/03/23 01:07:42;;;;;;;19.70;15.02;;;;;;;2.30;76.33;96982.50;6336037;22;19999;-65
2022/03/23 01:10:13;;;;;;;18.60;14.13;;;;;;;2.26;76.25;96981.75;6335805;22;20076;-66
2022/03/23 01:12:39;;;;;;;17.27;13.68;;;;;;;2.23;75.99;96991.44;6336132;22;20434;-65
2022/03/23 01:15:05;;;;;;;20.35;14.20;;;;;;;2.17;76.95;96987.31;6335631;22;20005;-65
2022/03/23 01:17:31;;;;;;;16.85;13.95;;;;;;;2.15;77.38;96981.34;6336153;22;19998;-65
2022/03/23 01:19:57;;;;;;;18.33;13.77;;;;;;;2.19;76.93;96980.31;6335867;22;20021;-66
2022/03/23 01:22:22;;;;;;;18.83;13.40;;;;;;;2.11;76.93;96984.97;6335874;22;20007;-66
2022/03/23 01:24:48;;;;;;;15.65;13.60;;;;;;;2.08;77.19;96979.84;6335930;22;20073;-66
2022/03/23 01:27:13;;;;;;;17.85;13.85;;;;;;;2.18;76.23;96978.63;6335843;22;20503;-65
2022/03/23 01:29:39;;;;;;;18.17;13.98;;;;;;;2.10;76.43;96983.25;6336027;22;20454;-65
2022/03/23 01:32:05;;;;;;;17.58;13.13;;;;;;;2.09;76.28;96978.94;6335734;22;20013;-65
2022/03/23 01:34:30;;;;;;;31.98;17.80;;;;;;;2.06;76.92;96982.53;6335795;22;19999;-66
2022/03/23 01:36:56;;;;;;;16.88;13.85;;;;;;;1.99;77.11;96979.31;6335730;22;20435;-66
2022/03/23 01:39:21;;;;;;;20.75;14.73;;;;;;;2.00;77.00;96978.41;6335486;22;20011;-65
2022/03/23 01:41:47;;;;;;;17.40;13.75;;;;;;;2.01;77.06;96981.84;6335602;22;20007;-65
2022/03/23 01:44:20;;;;;;;15.80;13.27;;;;;;;1.99;78.37;96978.47;6308292;22;20007;-65
2022/03/23 01:47:03;;;;;;;18.70;13.00;;;;;;;1.87;77.47;96974.56;6335564;22;20010;-65
2022/03/23 01:49:30;;;;;;;19.38;12.57;;;;;;;1.88;77.63;96971.09;6335701;22;20086;-65
2022/03/23 01:51:56;;;;;;;20.52;12.95;;;;;;;1.88;78.06;96972.81;6336028;22;19999;-65
2022/03/23 01:54:21;;;;;;;15.23;12.85;;;;;;;1.81;77.57;96967.84;6335586;22;20067;-66
2022/03/23 01:56:49;;;;;;;18.25;13.00;;;;;;;1.77;78.15;96976.66;6335734;22;20006;-66
2022/03/23 01:59:17;;;;;;;16.75;13.18;;;;;;;1.76;77.84;96976.72;6335636;22;20003;-65
2022/03/23 02:01:43;;;;;;;14.05;12.23;;;;;;;1.70;77.83;96975.19;6335691;22;19999;-66
2022/03/23 02:04:09;;;;;;;22.15;11.95;;;;;;;1.66;78.57;96976.19;6335264;22;20362;-65
2022/03/23 02:06:35;;;;;;;20.50;13.05;;;;;;;1.65;78.76;96975.34;6335291;22;20003;-65
2022/03/23 02:09:00;;;;;;;17.27;13.98;;;;;;;1.62;78.17;96975.44;6335954;22;20011;-65
2022/03/23 02:11:27;;;;;;;18.25;13.35;;;;;;;1.57;78.72;96969.59;6336057;22;20070;-65
2022/03/23 02:13:53;;;;;;;18.73;13.38;;;;;;;1.52;79.41;96971.50;6337628;22;20434;-65
2022/03/23 02:16:19;;;;;;;15.70;13.43;;;;;;;1.51;79.22;96972.41;6337476;22;20038;-65
2022/03/23 02:18:44;;;;;;;15.07;13.00;;;;;;;1.51;78.55;96975.00;6310057;22;19999;-65
2022/03/23 02:21:13;;;;;;;16.17;12.45;;;;;;;1.49;79.49;96969.03;6337493;22;20006;-65
2022/03/23 02:23:39;;;;;;;15.05;11.80;;;;;;;1.44;79.18;96966.56;6337731;22;20011;-65
2022/03/23 02:26:06;;;;;;;13.80;12.20;;;;;;;1.42;78.83;96966.63;6337920;22;20328;-65
2022/03/23 02:28:31;;;;;;;13.43;11.80;;;;;;;1.39;78.71;96965.91;6337223;22;20007;-65
2022/03/23 02:30:57;;;;;;;14.40;12.13;;;;;;;1.37;79.56;96967.72;6337153;22;20506;-65
2022/03/23 02:33:22;;;;;;;12.75;11.10;;;;;;;1.34;79.06;96968.66;6337401;22;20452;-65
2022/03/23 02:35:48;;;;;;;11.63;10.40;;;;;;;1.35;79.62;96962.56;6337405;22;20013;-65
2022/03/23 02:38:16;;;;;;;18.60;11.15;;;;;;;1.34;79.16;96971.25;6337376;22;20006;-65
2022/03/23 02:40:42;;;;;;;11.93;10.68;;;;;;;1.32;79.62;96972.19;6337109;22;20027;-65
2022/03/23 02:43:08;;;;;;;13.93;10.35;;;;;;;1.35;78.34;96967.75;6337533;22;20007;-65
2022/03/23 02:45:33;;;;;;;17.30;10.25;;;;;;;1.34;79.01;96965.22;6337218;22;20013;-65
2022/03/23 02:47:58;;;;;;;11.60;9.48;;;;;;;1.27;79.52;96962.81;6336984;22;20018;-65
2022/03/23 02:50:24;;;;;;;12.50;10.25;;;;;;;1.27;79.57;96969.78;6337227;22;20388;-65
2022/03/23 03:04:15;;;;;;;13.25;9.55;;;;;;;1.26;79.04;96981.06;6337414;22;20068;-65
2022/03/23 03:06:40;;;;;;;10.02;9.07;;;;;;;1.25;79.43;96977.59;6337457;22;20386;-65
2022/03/23 03:09:06;;;;;;;10.93;9.80;;;;;;;1.22;79.26;96971.69;6337286;22;19995;-65
2022/03/23 03:11:31;;;;;;;12.55;9.65;;;;;;;1.18;80.55;96981.31;6337341;22;20006;-65
2022/03/23 03:13:57;;;;;;;12.60;9.95;;;;;;;1.19;80.58;96982.13;6337162;22;20051;-65
2022/03/23 03:16:22;;;;;;;13.60;10.65;;;;;;;1.16;80.61;96977.91;6337334;22;20439;-65
2022/03/23 03:18:48;;;;;;;12.68;10.85;;;;;;;1.12;80.37;96977.16;6337152;22;20007;-65
2022/03/23 03:21:13;;;;;;;11.13;9.88;;;;;;;1.06;80.52;96974.78;6336588;22;20126;-65
2022/03/23 03:23:42;;;;;;;11.90;9.45;;;;;;;1.01;81.00;96976.69;6337087;22;20461;-65
2022/03/23 03:26:08;;;;;;;12.77;10.38;;;;;;;1.00;79.98;96972.41;6336312;22;19999;-65
2022/03/23 03:28:35;;;;;;;11.07;9.98;;;;;;;1.03;80.61;96976.63;6337067;22;20052;-65
2022/03/23 03:31:04;;;;;;;11.75;9.93;;;;;;;0.99;80.51;96981.94;6337574;22;20030;-65
2022/03/23 03:33:30;;;;;;;11.60;9.77;;;;;;;0.98;80.28;96979.38;6337195;22;20014;-65
2022/03/23 03:35:55;;;;;;;10.77;9.68;;;;;;;0.94;81.03;96982.97;6337119;22;20011;-65
2022/03/23 03:38:21;;;;;;;11.73;9.63;;;;;;;0.92;80.37;96984.78;6336937;22;20427;-65
2022/03/23 03:40:46;;;;;;;11.43;10.32;;;;;;;0.89;80.49;96982.28;6337129;22;20466;-65
2022/03/23 03:43:12;;;;;;;12.25;9.98;;;;;;;0.92;80.28;96988.22;6336771;22;20003;-65
2022/03/23 03:45:38;;;;;;;12.27;9.57;;;;;;;0.93;80.29;96983.88;6308983;22;20482;-65
2022/03/23 03:48:03;;;;;;;10.98;9.88;;;;;;;0.87;80.26;96989.25;6336800;22;20097;-65
2022/03/23 03:50:29;;;;;;;11.18;10.15;;;;;;;0.87;80.95;96989.25;6336923;22;20002;-65
2022/03/23 03:52:55;;;;;;;12.93;10.88;;;;;;;0.79;81.53;96990.38;6336865;22;20453;-65
2022/03/23 03:55:20;;;;;;;13.25;9.88;;;;;;;0.80;81.19;96989.47;6336943;22;20003;-65
2022/03/23 03:57:46;;;;;;;10.15;8.95;;;;;;;0.83;80.56;96994.56;6336973;22;20009;-65
2022/03/23 04:00:12;;;;;;;10.07;9.18;;;;;;;0.82;81.53;96998.03;6336999;22;20255;-65
2022/03/23 04:02:38;;;;;;;11.85;10.07;;;;;;;0.76;80.90;96999.97;6336678;22;20439;-65
2022/03/23 04:05:04;;;;;;;11.02;9.27;;;;;;;0.71;81.01;96997.53;6336679;22;19999;-65
2022/03/23 04:07:32;;;;;;;10.43;9.35;;;;;;;0.74;80.59;97006.97;6309284;22;20034;-65
2022/03/23 04:10:00;;;;;;;13.18;8.75;;;;;;;0.69;81.64;96995.00;6336279;22;20007;-65
2022/03/23 04:12:25;;;;;;;10.77;9.65;;;;;;;0.70;81.03;96995.84;6336587;22;20059;-65
2022/03/23 04:14:51;;;;;;;11.43;9.10;;;;;;;0.66;81.52;96997.69;6336391;22;20007;-65
2022/03/23 04:17:16;;;;;;;11.18;9.63;;;;;;;0.62;80.98;97003.84;6336411;22;20022;-65
2022/03/23 04:19:42;;;;;;;11.18;10.02;;;;;;;0.66;80.28;97004.63;6336725;22;20003;-65
2022/03/23 04:22:08;;;;;;;12.80;10.05;;;;;;;0.63;81.32;97010.72;6336386;22;20003;-65
2022/03/23 04:24:33;;;;;;;11.63;10.45;;;;;;;0.56;81.30;97004.91;6336733;22;20003;-65
2022/03/23 04:26:59;;;;;;;11.65;9.73;;;;;;;0.52;82.35;97007.63;6336365;22;20106;-65
2022/03/23 04:29:26;;;;;;;10.43;8.85;;;;;;;0.48;81.70;97014.66;6336318;22;20009;-65
2022/03/23 04:31:52;;;;;;;11.00;9.88;;;;;;;0.49;81.59;97016.34;6336232;22;20422;-66
2022/03/23 04:34:17;;;;;;;11.68;9.10;;;;;;;0.51;81.75;97016.31;6335830;22;20056;-65
2022/03/23 04:36:42;;;;;;;10.57;9.52;;;;;;;0.43;82.98;97012.19;6335955;22;20025;-65
2022/03/23 04:39:08;;;;;;;12.52;8.82;;;;;;;0.39;81.95;97007.16;6336159;22;19999;-65
2022/03/23 04:41:33;;;;;;;10.73;9.63;;;;;;;0.46;81.28;97013.03;6336310;22;20033;-65
2022/03/23 04:43:58;;;;;;;9.55;8.55;;;;;;;0.48;81.67;97014.66;6336432;22;20006;-65
2022/03/23 04:46:24;;;;;;;11.15;9.05;;;;;;;0.45;81.93;97014.75;6336130;22;20359;-65
2022/03/23 04:48:49;;;;;;;11.15;10.05;;;;;;;0.36;82.40;97009.88;6336491;22;20320;-65
2022/03/23 04:51:15;;;;;;;14.57;10.98;;;;;;;0.33;82.63;97017.69;6336468;22;20383;-65
2022/03/23 04:53:40;;;;;;;11.40;9.60;;;;;;;0.33;82.55;97017.69;6336425;22;20342;-65
2022/03/23 04:56:06;;;;;;;10.38;9.40;;;;;;;0.35;82.30;97013.34;6336364;22;20002;-65
2022/03/23 04:58:31;;;;;;;14.30;9.75;;;;;;;0.36;83.09;97015.88;6336324;22;20202;-65
2022/03/23 05:00:57;;;;;;;10.07;9.13;;;;;;;0.31;82.82;97019.50;6336021;22;20003;-65
2022/03/23 05:03:24;;;;;;;10.45;9.27;;;;;;;0.29;83.44;97024.72;6336192;22;20056;-65
2022/03/23 05:05:50;;;;;;;11.32;9.52;;;;;;;0.28;83.10;97023.88;6336334;22;20085;-65
2022/03/23 05:08:15;;;;;;;9.77;8.88;;;;;;;0.34;83.42;97024.59;6335837;22;20030;-65
2022/03/23 05:10:40;;;;;;;10.93;9.15;;;;;;;0.28;83.35;97020.44;6308459;22;20009;-64
2022/03/23 05:13:06;;;;;;;10.70;9.60;;;;;;;0.24;84.14;97024.03;6335754;22;20077;-65
2022/03/23 05:15:31;;;;;;;10.95;9.05;;;;;;;0.21;84.38;97022.38;6336204;22;20402;-65
2022/03/23 05:17:57;;;;;;;10.07;9.05;;;;;;;0.25;83.99;97025.72;6336599;22;20080;-65
2022/03/23 05:20:24;;;;;;;11.35;9.35;;;;;;;0.21;83.80;97021.50;6335461;22;19998;-65
2022/03/23 05:22:50;;;;;;;15.10;10.07;;;;;;;0.23;83.15;97022.34;6336369;22;20044;-65
2022/03/23 05:25:15;;;;;;;9.77;8.77;;;;;;;0.25;83.52;97031.75;6335943;22;20347;-65
2022/03/23 05:27:42;;;;;;;10.73;9.65;;;;;;;0.24;83.14;97029.22;6336039;22;20041;-64
2022/03/23 05:30:10;;;;;;;12.35;10.30;;;;;;;0.22;82.96;97025.78;6336157;22;19995;-65
2022/03/23 05:32:36;;;;;;;11.45;9.25;;;;;;;0.24;82.33;97022.28;6336190;22;20010;-65
2022/03/23 05:35:02;;;;;;;10.20;9.15;;;;;;;0.26;83.15;97019.66;6336226;22;20331;-65
2022/03/23 05:37:28;;;;;;;9.98;8.95;;;;;;;0.24;83.24;97024.88;6336009;22;20002;-65
2022/03/23 05:39:53;;;;;;;12.70;10.48;;;;;;;0.21;83.17;97030.13;6336482;22;20003;-65
2022/03/23 05:42:19;;;;;;;13.68;9.85;;;;;;;0.16;84.29;97029.44;6336301;22;20419;-65
2022/03/23 05:44:45;;;;;;;10.75;9.75;;;;;;;0.11;84.01;97028.69;6336208;22;19999;-65
2022/03/23 05:47:10;;;;;;;11.60;9.88;;;;;;;0.12;83.66;97030.41;6335431;22;20015;-65
2022/03/23 05:49:36;;;;;;;13.10;10.55;;;;;;;0.11;83.70;97032.16;6335601;22;20014;-65
2022/03/23 05:52:02;;;;;;;13.30;10.85;;;;;;;0.09;83.47;97028.75;6335732;22;20335;-64
2022/03/23 05:54:27;;;;;;;14.10;10.68;;;;;;;0.08;83.88;97032.25;6335972;22;20528;-64
2022/03/23 05:56:53;;;;;;;14.93;10.43;;;;;;;0.04;83.57;97041.00;6336602;22;20027;-64
2022/03/23 05:59:19;;;;;;;10.52;9.52;;;;;;;0.08;83.17;97029.66;6335723;22;20003;-65
2022/03/23 06:01:45;;;;;;;12.95;10.13;;;;;;;0.12;83.64;97030.41;6336011;22;20688;-64
2022/03/23 06:04:12;;;;;;;14.15;10.50;;;;;;;0.14;83.16;97042.41;6335771;22;20015;-65
2022/03/23 06:06:38;;;;;;;12.50;11.15;;;;;;;0.13;83.68;97032.13;6335836;22;20320;-65
2022/03/23 06:09:03;;;;;;;11.65;10.55;;;;;;;0.09;83.08;97035.66;6335734;22;19999;-64
2022/03/23 06:11:29;;;;;;;10.63;9.52;;;;;;;0.19;83.11;97034.53;6335817;22;20085;-64
2022/03/23 06:13:54;;;;;;;12.20;10.20;;;;;;;0.25;83.27;97042.09;6335775;22;20009;-65
2022/03/23 06:16:20;;;;;;;10.73;9.70;;;;;;;0.25;83.40;97046.44;6335561;22;20009;-64
2022/03/23 06:18:46;;;;;;;12.27;9.77;;;;;;;0.23;82.93;97049.06;6335954;22;20068;-65
2022/03/23 06:21:12;;;;;;;11.75;9.95;;;;;;;0.22;83.94;97044.78;6335095;22;20002;-64
2022/03/23 06:23:37;;;;;;;10.82;9.63;;;;;;;0.20;83.20;97046.56;6335513;22;20011;-65
2022/03/23 06:26:04;;;;;;;13.88;10.23;;;;;;;0.23;83.57;97049.06;6336046;22;20375;-65
2022/03/23 06:28:29;;;;;;;13.10;10.82;;;;;;;0.28;83.55;97048.94;6335827;22;20010;-64
2022/03/23 06:30:55;;;;;;;13.35;10.52;;;;;;;0.30;83.71;97046.28;6334967;22;20006;-65
2022/03/23 06:33:20;;;;;;;11.35;10.27;;;;;;;0.35;83.46;97052.22;6335727;22;20010;-64
2022/03/23 06:35:47;;;;;;;11.10;10.00;;;;;;;0.41;82.71;97055.44;6335887;22;19998;-65
2022/03/23 06:38:13;;;;;;;16.08;9.77;;;;;;;0.46;82.67;97054.47;6335604;22;20504;-65
2022/03/23 06:40:38;;;;;;;12.05;10.75;;;;;;;0.47;83.33;97057.00;6335329;22;20490;-64
2022/03/23 06:43:04;;;;;;;11.73;10.52;;;;;;;0.49;82.73;97055.22;6335491;22;20007;-65
2022/03/23 06:45:29;;;;;;;11.52;10.32;;;;;;;0.50;82.96;97054.31;6335787;22;20011;-64
2022/03/23 06:47:55;;;;;;;12.40;10.98;;;;;;;0.53;82.64;97059.41;6335518;22;20053;-64
2022/03/23 06:50:21;;;;;;;11.93;10.40;;;;;;;0.62;82.76;97054.84;6335693;22;20396;-64
2022/03/23 06:52:46;;;;;;;11.93;10.45;;;;;;;0.67;83.10;97052.97;6335565;22;19999;-64
2022/03/23 06:55:12;;;;;;;16.33;10.23;;;;;;;0.67;83.19;97058.16;6334772;22;20034;-64
2022/03/23 06:57:37;;;;;;;12.23;10.00;;;;;;;0.68;82.81;97052.94;6333810;22;20335;-65
2022/03/23 07:00:12;;;;;;;15.68;11.18;;;;;;;0.71;82.83;97055.44;6335677;22;20079;-65
2022/03/23 07:02:38;;;;;;;16.98;12.02;;;;;;;0.76;82.42;97052.66;6336151;22;20494;-64
2022/03/23 07:05:04;;;;;;;15.68;13.02;;;;;;;0.80;82.41;97054.28;6336956;22;20073;-64
2022/03/23 07:07:29;;;;;;;19.40;12.60;;;;;;;0.83;83.21;97059.38;6335966;22;20010;-65
2022/03/23 07:09:54;;;;;;;23.70;13.13;;;;;;;0.90;82.50;97054.00;6337424;22;20389;-61
2022/03/23 07:12:20;;;;;;;17.23;12.77;;;;;;;0.90;82.24;97056.59;6337151;22;20371;-61
2022/03/23 07:14:46;;;;;;;15.00;12.63;;;;;;;0.87;82.71;97059.28;6337229;22;20003;-61
2022/03/23 07:17:12;;;;;;;14.45;11.30;;;;;;;0.96;82.49;97064.16;6336156;22;20014;-61
2022/03/23 07:19:38;;;;;;;14.05;12.65;;;;;;;1.06;82.04;97060.38;6336621;22;20398;-62
2022/03/23 07:22:03;;;;;;;14.10;12.65;;;;;;;1.47;82.74;97059.06;6335727;22;20084;-62
2022/03/23 07:24:29;;;;;;;14.00;12.50;;;;;;;2.45;80.58;97061.63;6335589;22;20013;-62
2022/03/23 07:26:54;;;;;;;13.75;12.32;;;;;;;3.53;75.96;97058.25;6335691;22;20037;-62
2022/03/23 07:29:20;;;;;;;12.82;11.43;;;;;;;4.44;73.54;97058.63;6335717;22;20372;-63
2022/03/23 07:31:45;;;;;;;10.15;9.13;;;;;;;5.14;70.22;97050.16;6335548;22;20451;-63
2022/03/23 07:34:13;;;;;;;13.18;10.43;;;;;;;5.60;68.35;97060.09;6335523;22;20010;-63
2022/03/23 07:36:38;;;;;;;18.92;9.77;;;;;;;6.02;66.17;97056.22;6336177;22;20060;-61
2022/03/23 07:39:04;;;;;;;10.93;9.82;;;;;;;6.42;64.99;97065.50;6335081;22;20347;-61
2022/03/23 07:41:29;;;;;;;10.40;8.57;;;;;;;7.21;62.41;97052.50;6336208;22;20014;-62
2022/03/23 07:43:55;;;;;;;12.23;8.45;;;;;;;7.16;59.63;97060.59;6336330;22;20044;-64
2022/03/23 07:46:20;;;;;;;14.05;8.15;;;;;;;7.25;58.79;97054.84;6336322;22;20133;-64
2022/03/23 07:48:46;;;;;;;9.48;8.63;;;;;;;7.77;58.48;97054.50;6336726;22;20010;-64
2022/03/23 07:51:11;;;;;;;13.18;8.50;;;;;;;8.35;54.24;97057.19;6335619;22;20091;-64
2022/03/23 07:53:37;;;;;;;10.13;8.20;;;;;;;8.47;54.68;97048.53;6336118;22;20082;-64
2022/03/23 07:56:02;;;;;;;7.53;6.75;;;;;;;8.37;54.05;97050.88;6336096;22;19999;-65
2022/03/23 07:58:29;;;;;;;8.85;7.97;;;;;;;8.26;54.07;97048.91;6336633;22;20011;-62
2022/03/23 08:00:55;;;;;;;10.75;7.95;;;;;;;8.14;52.65;97053.13;6336599;22;20080;-64
2022/03/23 08:03:20;;;;;;;10.90;7.43;;;;;;;8.35;50.74;97044.88;6336116;22;20099;-65
2022/03/23 08:05:47;;;;;;;8.40;7.50;;;;;;;8.92;51.11;97047.53;6336846;22;20003;-65
2022/03/23 08:08:12;;;;;;;8.52;7.47;;;;;;;9.34;52.78;97050.97;6336633;22;19999;-65
2022/03/23 08:10:42;;;;;;;10.20;8.57;;;;;;;9.41;53.20;97048.78;6336049;22;20013;-64
2022/03/23 08:13:09;;;;;;;8.95;7.10;;;;;;;9.74;52.76;97048.31;6336312;22;20458;-64
2022/03/23 08:15:37;;;;;;;11.90;7.45;;;;;;;9.69;50.88;97047.78;6336467;22;20033;-64
2022/03/23 08:18:03;;;;;;;7.85;7.05;;;;;;;9.91;48.85;97046.31;6335913;22;20073;-65
2022/03/23 08:20:32;;;;;;;8.05;7.18;;;;;;;10.01;49.41;97047.38;6335912;22;20422;-63
2022/03/23 08:22:59;;;;;;;8.50;7.20;;;;;;;9.97;49.64;97051.16;6335938;22;20011;-63
2022/03/23 08:25:25;;;;;;;8.93;6.63;;;;;;;10.07;49.09;97046.13;6336337;22;20055;-62
2022/03/23 08:27:50;;;;;;;8.65;7.25;;;;;;;10.17;47.60;97048.97;6336316;22;20071;-62
2022/03/23 08:30:16;;;;;;;8.95;6.55;;;;;;;10.15;47.05;97048.22;6336838;22;20078;-63
2022/03/23 08:32:41;;;;;;;16.15;10.90;;;;;;;10.18;46.71;97050.63;6308910;22;20006;-62
2022/03/23 08:35:07;;;;;;;12.10;9.45;;;;;;;10.13;47.78;97045.69;6336340;22;20688;-62
2022/03/23 08:37:32;;;;;;;9.73;7.68;;;;;;;10.19;47.32;97041.78;6308863;22;20007;-61
2022/03/23 08:39:59;;;;;;;8.32;6.25;;;;;;;10.51;46.44;97038.75;6336602;22;20506;-61
2022/03/23 08:42:25;;;;;;;9.15;6.82;;;;;;;10.83;45.52;97046.13;6336289;22;20383;-61
2022/03/23 08:44:51;;;;;;;8.32;7.38;;;;;;;10.71;45.96;97039.94;6336379;22;20077;-62
2022/03/23 08:47:17;;;;;;;8.13;7.13;;;;;;;10.77;46.03;97037.81;6336016;22;20411;-63
2022/03/23 08:49:42;;;;;;;9.50;7.28;;;;;;;10.58;45.28;97039.13;6336332;22;20003;-62
2022/03/23 08:52:08;;;;;;;12.73;8.18;;;;;;;10.77;47.12;97037.81;6336386;22;20007;-61
2022/03/23 08:54:33;;;;;;;11.27;7.50;;;;;;;11.02;46.47;97039.53;6336007;22;20002;-60
2022/03/23 08:56:59;;;;;;;8.20;7.28;;;;;;;11.03;44.47;97022.78;6336233;22;20418;-61
2022/03/23 08:59:24;;;;;;;12.20;7.38;;;;;;;10.93;43.37;97032.28;6336360;22;20013;-60
2022/03/23 09:01:50;;;;;;;10.27;7.03;;;;;;;10.73;44.34;97024.88;6336349;22;20078;-59
2022/03/23 09:04:16;;;;;;;9.77;6.20;;;;;;;11.13;43.78;97015.84;6336442;22;20014;-60
2022/03/23 09:06:41;;;;;;;7.20;6.45;;;;;;;10.72;44.14;97017.94;6336103;22;20029;-60
2022/03/23 09:09:06;;;;;;;10.25;7.18;;;;;;;11.31;44.16;97018.94;6308440;22;20003;-61
2022/03/23 09:11:32;;;;;;;9.88;7.40;;;;;;;11.14;44.34;97009.63;6336076;22;20034;-61
2022/03/23 09:13:58;;;;;;;10.88;6.53;;;;;;;11.61;42.99;97006.22;6335786;22;20007;-61
2022/03/23 09:16:24;;;;;;;7.85;7.07;;;;;;;11.64;42.29;97007.75;6335833;22;20056;-61
2022/03/23 09:18:49;;;;;;;7.00;6.30;;;;;;;11.88;41.91;97007.72;6336013;22;20007;-61
2022/03/23 09:21:15;;;;;;;11.55;7.32;;;;;;;12.15;43.29;97014.47;6335382;22;20007;-61
2022/03/23 09:23:41;;;;;;;9.93;7.40;;;;;;;12.45;41.49;97005.94;6336088;22;20334;-60
2022/03/23 09:26:09;;;;;;;9.70;7.05;;;;;;;12.44;40.36;97003.41;6336432;22;20002;-61
2022/03/23 09:28:35;;;;;;;12.20;6.95;;;;;;;12.83;40.26;97003.84;6336109;22;20003;-60
2022/03/23 09:31:00;;;;;;;7.30;6.35;;;;;;;12.87;38.92;97005.25;6335578;22;20003;-61
2022/03/23 09:33:26;;;;;;;7.75;6.95;;;;;;;12.42;40.48;96998.28;6335659;22;20003;-60
2022/03/23 09:35:52;;;;;;;7.38;6.25;;;;;;;12.65;40.06;96994.75;6336076;22;20006;-60
2022/03/23 09:38:17;;;;;;;7.18;5.97;;;;;;;12.83;38.64;97003.84;6336185;22;20324;-60
2022/03/23 09:40:46;;;;;;;6.18;5.72;;;;;;;12.98;39.70;96998.28;6335937;22;20006;-61
2022/03/23 09:43:12;;;;;;;8.13;6.40;;;;;;;13.12;38.05;96992.69;6336222;22;20003;-61
2022/03/23 09:48:10;;;;;;;9.25;7.03;;;;;;;13.07;38.59;96989.59;6335690;22;20029;-61
2022/03/23 09:50:38;;;;;;;7.97;5.97;;;;;;;13.64;37.26;96983.22;6335938;22;20025;-60
2022/03/23 09:53:04;;;;;;;8.15;6.57;;;;;;;13.59;36.70;96981.81;6336083;22;20009;-61
2022/03/23 09:55:30;;;;;;;7.28;6.53;;;;;;;13.71;38.04;96981.75;6336334;22;20312;-60
2022/03/23 09:57:57;;;;;;;7.90;6.60;;;;;;;13.74;37.38;96986.78;6335989;22;20002;-61
2022/03/23 10:00:24;;;;;;;7.28;6.20;;;;;;;14.12;37.28;96982.66;6335913;22;20026;-61
2022/03/23 10:02:55;;;;;;;6.70;6.00;;;;;;;14.51;36.17;96981.13;6335870;22;20003;-61
2022/03/23 10:05:23;;;;;;;8.65;6.70;;;;;;;14.70;35.55;96980.31;6335840;22;20002;-61
2022/03/23 10:08:10;;;;;;;6.72;6.05;;;;;;;14.53;36.11;96980.03;6336116;22;20446;-60
2022/03/23 10:11:13;;;;;;;7.28;6.28;;;;;;;14.54;35.27;96971.09;6335863;22;20003;-60
2022/03/23 10:14:09;;;;;;;7.40;6.10;;;;;;;14.69;33.29;96965.41;6335654;22;20009;-60
2022/03/23 10:16:53;;;;;;;8.20;7.30;;;;;;;15.12;33.12;96961.56;6335627;22;20014;-61
2022/03/23 10:19:19;;;;;;;11.73;6.05;;;;;;;15.37;31.94;96956.69;6336411;22;20030;-61
2022/03/23 10:21:45;;;;;;;8.25;6.50;;;;;;;15.76;30.80;96950.47;6335848;22;20431;-60
2022/03/23 10:24:10;;;;;;;7.70;6.43;;;;;;;15.09;30.17;96950.41;6335764;22;20461;-60
2022/03/23 10:26:36;;;;;;;10.20;5.82;;;;;;;14.81;32.59;96956.38;6335624;22;20077;-61
2022/03/23 10:29:03;;;;;;;9.05;5.75;;;;;;;14.87;31.95;96949.72;6335695;22;19999;-60
2022/03/23 10:31:29;;;;;;;5.78;5.28;;;;;;;14.53;33.30;96953.53;6335772;22;19999;-60
2022/03/23 10:33:57;;;;;;;11.20;5.82;;;;;;;14.90;31.34;96941.47;6337101;22;20351;-60
2022/03/23 10:36:24;;;;;;;8.27;5.60;;;;;;;15.04;31.99;96950.81;6337754;22;20097;-61
2022/03/23 10:38:49;;;;;;;8.20;6.47;;;;;;;15.74;30.53;96945.31;6337818;22;20474;-61
2022/03/23 10:41:24;;;;;;;8.32;6.38;;;;;;;15.37;31.44;96943.44;6337847;22;20009;-61
2022/03/23 10:43:50;;;;;;;;;;;;;;;15.75;30.01;96946.16;6338190;22;20346;-61
2022/03/23 10:46:17;;;;;;;8.43;5.90;;;;;;;15.51;30.80;96942.16;6337318;22;19918;-61
2022/03/23 10:49:01;;;;;;;6.80;5.53;;;;;;;15.58;30.47;96940.59;6337406;22;20727;-61
2022/03/23 10:51:28;;;;;;;8.88;6.00;;;;;;;15.99;31.28;96942.19;6337429;22;20442;-61
2022/03/23 10:53:54;;;;;;;8.75;6.05;;;;;;;16.62;30.00;96935.31;6337474;22;20057;-62
2022/03/23 10:56:30;;;;;;;6.15;5.60;;;;;;;16.47;30.10;96930.50;6337508;22;20007;-61
2022/03/23 10:59:16;;;;;;;7.10;6.30;;;;;;;17.22;27.78;96927.75;6337342;22;20007;-62
2022/03/23 11:01:55;;;;;;;8.02;6.20;;;;;;;16.57;29.86;96921.63;6298974;22;20011;-61
2022/03/23 11:04:21;;;;;;;10.20;7.20;;;;;;;16.74;30.02;96923.47;6337020;22;20462;-62
2022/03/23 11:06:46;;;;;;;9.07;6.50;;;;;;;17.37;29.19;96920.06;6337398;22;20006;-62
2022/03/23 11:18:17;;;;;;;8.43;6.85;;;;;;;17.52;27.58;96901.69;6337298;22;20556;-62
2022/03/23 11:20:46;;;;;;;11.13;6.97;;;;;;;17.76;26.69;96893.84;6337181;22;20442;-62
2022/03/23 11:23:19;;;;;;;7.65;6.95;;;;;;;17.50;27.08;96893.03;6337291;22;20439;-62
2022/03/23 11:25:46;;;;;;;9.05;6.28;;;;;;;17.24;26.74;96894.69;6337880;22;20093;-63
2022/03/23 11:28:16;;;;;;;12.18;7.07;;;;;;;17.23;26.97;96889.50;6336976;22;19999;-62
2022/03/23 11:30:46;;;;;;;11.52;6.57;;;;;;;16.93;28.28;96878.28;6337046;22;20014;-61
2022/03/23 11:33:15;;;;;;;8.60;7.40;;;;;;;16.54;29.69;96880.25;6368221;22;20608;-60
2022/03/23 11:35:46;;;;;;;7.20;6.18;;;;;;;16.77;29.12;96882.44;6368750;22;20055;-60
2022/03/23 11:38:12;;;;;;;10.05;6.57;;;;;;;16.81;28.06;96878.50;6369024;22;20075;-60
2022/03/23 11:40:40;;;;;;;8.07;7.13;;;;;;;16.50;28.91;96870.03;6368441;22;20450;-61
2022/03/23 11:43:06;;;;;;;7.63;6.85;;;;;;;16.61;28.28;96870.66;6368640;22;19998;-61
2022/03/23 11:45:32;;;;;;;8.20;6.82;;;;;;;17.01;28.52;96852.59;6367919;22;19999;-61
2022/03/23 11:48:25;;;;;;;8.55;7.05;;;;;;;17.23;27.43;96857.59;6368477;22;20095;-60
2022/03/23 11:51:05;;;;;;;9.32;7.50;;;;;;;16.87;28.15;96861.91;6304109;22;20071;-60